createdAt,value
2019-05-02T00:02:13.076Z,13.30
2019-05-02T00:04:42.708Z,13.30
2019-05-02T00:07:14.402Z,13.40
2019-05-02T00:09:48.416Z,13.40
2019-05-02T00:12:17.477Z,13.40
2019-05-02T00:14:47.721Z,13.30
2019-05-02T00:17:20.150Z,13.30
2019-05-02T00:19:49.872Z,13.30
2019-05-02T00:22:21.321Z,13.30
2019-05-02T00:24:51.169Z,13.30
2019-05-02T00:27:20.949Z,13.30
2019-05-02T00:29:53.895Z,13.20
2019-05-02T00:32:22.500Z,13.00
2019-05-02T00:34:53.361Z,12.80
2019-05-02T00:37:24.601Z,12.70
2019-05-02T00:39:54.425Z,12.60
2019-05-02T00:42:24.214Z,12.60
2019-05-02T00:44:53.948Z,12.50
2019-05-02T00:47:25.295Z,12.50
2019-05-02T00:49:54.998Z,12.50
2019-05-02T00:52:24.638Z,12.40
2019-05-02T00:54:55.051Z,12.40
2019-05-02T00:57:25.668Z,12.40
2019-05-02T00:59:55.304Z,12.40
2019-05-02T01:02:27.503Z,12.50
2019-05-02T01:04:59.316Z,12.50
2019-05-02T01:07:28.508Z,12.50
2019-05-02T01:09:58.116Z,12.40
2019-05-02T01:12:27.954Z,12.40
2019-05-02T01:14:57.532Z,12.40
2019-05-02T01:17:30.992Z,12.50
2019-05-02T01:19:58.285Z,12.50
2019-05-02T01:22:28.196Z,12.40
2019-05-02T01:24:57.747Z,12.40
2019-05-02T01:27:35.996Z,12.50
2019-05-02T01:30:17.086Z,12.40
2019-05-02T01:32:48.471Z,12.40
2019-05-02T01:35:22.351Z,12.40
2019-05-02T01:38:10.066Z,12.50
2019-05-02T01:40:39.712Z,12.50
2019-05-02T01:43:25.328Z,12.40
2019-05-02T01:45:55.390Z,12.50
2019-05-02T01:48:25.647Z,12.60
2019-05-02T01:50:55.433Z,12.60
2019-05-02T01:53:29.405Z,12.40
2019-05-02T01:55:57.256Z,12.40
2019-05-02T01:58:27.561Z,12.40
2019-05-02T02:00:57.064Z,12.50
2019-05-02T02:03:26.774Z,12.60
2019-05-02T02:05:56.419Z,12.60
2019-05-02T02:08:27.400Z,12.50
2019-05-02T02:10:58.275Z,12.40
2019-05-02T02:13:31.386Z,12.30
2019-05-02T02:16:04.464Z,12.30
2019-05-02T02:18:33.116Z,12.20
2019-05-02T02:21:25.671Z,12.30
2019-05-02T02:23:55.219Z,12.30
2019-05-02T02:26:25.634Z,12.40
2019-05-02T02:28:55.281Z,12.30
2019-05-02T02:31:24.854Z,12.10
2019-05-02T02:33:54.630Z,12.00
2019-05-02T02:36:31.525Z,11.90
2019-05-02T02:38:55.423Z,12.00
2019-05-02T02:41:25.070Z,12.10
2019-05-02T02:44:03.033Z,12.00
2019-05-02T02:46:37.859Z,11.80
2019-05-02T02:49:05.989Z,11.70
2019-05-02T02:51:35.575Z,11.60
2019-05-02T02:54:05.812Z,11.50
2019-05-02T02:56:40.408Z,11.50
2019-05-02T02:59:07.099Z,11.40
2019-05-02T03:01:36.908Z,11.40
2019-05-02T03:04:09.114Z,11.40
2019-05-02T03:06:38.419Z,11.40
2019-05-02T03:09:09.214Z,11.30
2019-05-02T03:11:49.471Z,11.20
2019-05-02T03:14:23.330Z,11.10
2019-05-02T03:16:52.851Z,11.00
2019-05-02T03:19:23.138Z,10.90
2019-05-02T03:22:00.317Z,10.90
2019-05-02T03:24:26.444Z,10.90
2019-05-02T03:26:58.339Z,10.90
2019-05-02T03:29:39.700Z,10.90
2019-05-02T03:32:13.506Z,10.80
2019-05-02T03:34:45.553Z,10.80
2019-05-02T03:37:10.715Z,10.90
2019-05-02T03:39:35.087Z,10.90
2019-05-02T03:42:05.111Z,10.80
2019-05-02T03:44:35.950Z,10.70
2019-05-02T03:47:05.568Z,10.60
2019-05-02T03:49:40.964Z,10.50
2019-05-02T03:52:06.456Z,10.50
2019-05-02T03:54:48.441Z,10.50
2019-05-02T03:57:07.884Z,10.50
2019-05-02T03:59:39.401Z,10.40
2019-05-02T04:02:14.000Z,10.40
2019-05-02T04:04:40.972Z,10.40
2019-05-02T04:07:10.815Z,10.40
2019-05-02T04:09:42.504Z,10.40
2019-05-02T04:12:18.689Z,10.30
2019-05-02T04:14:43.381Z,10.30
2019-05-02T04:17:12.951Z,10.20
2019-05-02T04:19:43.537Z,10.20
2019-05-02T04:22:14.750Z,10.20
2019-05-02T04:24:47.809Z,10.20
2019-05-02T04:27:16.107Z,10.20
2019-05-02T04:29:46.695Z,10.30
2019-05-02T04:32:16.325Z,10.40
2019-05-02T04:34:48.839Z,10.50
2019-05-02T04:37:17.098Z,10.50
2019-05-02T04:39:49.066Z,10.50
2019-05-02T04:42:22.067Z,10.60
2019-05-02T04:45:11.709Z,10.80
2019-05-02T04:47:21.781Z,11.00
2019-05-02T04:49:52.267Z,11.10
2019-05-02T04:52:21.996Z,11.30
2019-05-02T04:54:51.619Z,11.40
2019-05-02T04:57:27.157Z,11.60
2019-05-02T05:00:02.379Z,11.70
2019-05-02T05:02:31.085Z,11.70
2019-05-02T05:04:55.001Z,11.60
2019-05-02T05:07:24.560Z,11.70
2019-05-02T05:09:58.226Z,11.70
2019-05-02T05:12:25.385Z,11.80
2019-05-02T05:14:55.011Z,11.90
2019-05-02T05:17:25.192Z,12.10
2019-05-02T05:19:57.388Z,12.20
2019-05-02T05:22:28.357Z,12.40
2019-05-02T05:25:02.661Z,12.40
2019-05-02T05:27:32.225Z,12.40
2019-05-02T05:30:08.412Z,12.50
2019-05-02T05:32:33.024Z,12.70
2019-05-02T05:35:03.277Z,12.80
2019-05-02T05:37:33.913Z,13.00
2019-05-02T05:40:04.849Z,13.10
2019-05-02T05:42:34.425Z,13.20
2019-05-02T05:45:09.743Z,13.50
2019-05-02T05:47:37.825Z,14.40
2019-05-02T05:50:08.687Z,14.70
2019-05-02T05:52:42.265Z,14.90
2019-05-02T05:55:12.722Z,16.00
2019-05-02T05:57:40.692Z,15.70
2019-05-02T06:00:15.575Z,15.30
2019-05-02T06:02:52.821Z,15.20
2019-05-02T06:05:13.504Z,15.00
2019-05-02T06:07:44.918Z,15.50
2019-05-02T06:10:14.417Z,15.70
2019-05-02T06:12:44.182Z,16.80
2019-05-02T06:15:14.381Z,18.70
2019-05-02T06:17:43.985Z,18.30
2019-05-02T06:20:13.928Z,17.50
2019-05-02T06:22:43.491Z,17.00
2019-05-02T06:25:13.418Z,16.70
2019-05-02T06:27:43.131Z,16.70
2019-05-02T06:30:13.184Z,16.60
2019-05-02T06:32:43.817Z,20.20
2019-05-02T06:35:17.046Z,24.80
2019-05-02T06:37:50.112Z,27.40
2019-05-02T06:40:17.116Z,28.40
2019-05-02T06:42:46.712Z,28.30
2019-05-02T06:45:16.640Z,28.70
2019-05-02T06:47:46.324Z,27.70
2019-05-02T06:50:16.271Z,28.30
2019-05-02T06:52:45.998Z,29.00
2019-05-02T06:55:15.721Z,29.30
2019-05-02T06:57:45.356Z,29.40
2019-05-02T07:00:15.752Z,29.20
2019-05-02T07:02:45.395Z,30.10
2019-05-02T07:05:15.220Z,31.20
2019-05-02T07:07:44.996Z,31.80
2019-05-02T07:10:14.680Z,32.80
2019-05-02T07:12:46.194Z,33.30
2019-05-02T07:15:38.573Z,33.60
2019-05-02T07:18:10.759Z,34.20
2019-05-02T07:20:42.563Z,35.30
2019-05-02T07:23:16.165Z,36.40
2019-05-02T07:25:45.281Z,37.10
2019-05-02T07:28:14.956Z,37.10
2019-05-02T07:30:44.602Z,37.20
2019-05-02T07:33:14.232Z,38.20
2019-05-02T07:35:43.882Z,38.50
2019-05-02T07:38:13.689Z,38.40
2019-05-02T07:40:43.434Z,38.10
2019-05-02T07:43:19.205Z,37.80
2019-05-02T07:45:45.456Z,37.60
2019-05-02T07:48:17.841Z,38.60
2019-05-02T07:50:48.181Z,38.00
2019-05-02T07:53:18.136Z,37.30
2019-05-02T07:55:49.248Z,37.50
2019-05-02T07:58:19.185Z,37.70
2019-05-02T08:00:48.931Z,37.90
2019-05-02T08:03:18.608Z,38.60
2019-05-02T08:05:48.247Z,37.40
2019-05-02T08:08:17.877Z,36.60
2019-05-02T08:10:47.451Z,35.70
2019-05-02T08:13:17.747Z,35.30
2019-05-02T08:15:50.810Z,34.10
2019-05-02T08:18:18.732Z,34.80
2019-05-02T08:20:51.045Z,36.50
2019-05-02T08:23:20.439Z,36.40
2019-05-02T08:25:50.839Z,34.50
2019-05-02T08:28:22.225Z,33.30
2019-05-02T08:30:55.991Z,31.60
2019-05-02T08:33:29.264Z,29.60
2019-05-02T08:35:56.800Z,27.70
2019-05-02T08:38:26.339Z,26.40
2019-05-02T08:40:55.941Z,25.50
2019-05-02T08:43:25.647Z,25.00
2019-05-02T08:45:55.290Z,25.00
2019-05-02T08:48:25.072Z,24.80
2019-05-02T08:50:54.650Z,24.90
2019-05-02T08:53:24.291Z,24.70
2019-05-02T08:55:54.084Z,24.40
2019-05-02T08:58:23.772Z,24.50
2019-05-02T09:00:53.409Z,25.20
2019-05-02T09:03:23.023Z,25.30
2019-05-02T09:06:04.642Z,25.40
2019-05-02T09:08:24.348Z,25.00
2019-05-02T09:10:53.920Z,24.90
2019-05-02T09:13:27.135Z,25.10
2019-05-02T09:15:54.730Z,24.90
2019-05-02T09:18:30.097Z,24.90
2019-05-02T09:20:56.683Z,25.10
2019-05-02T09:23:27.569Z,24.90
2019-05-02T09:25:57.893Z,25.20
2019-05-02T09:28:27.383Z,25.10
2019-05-02T09:31:01.775Z,25.30
2019-05-02T09:33:28.297Z,25.10
2019-05-02T09:35:57.865Z,25.30
2019-05-02T09:38:27.504Z,25.40
2019-05-02T09:40:57.085Z,25.80
2019-05-02T09:43:29.394Z,25.90
2019-05-02T09:45:57.769Z,26.20
2019-05-02T09:48:27.328Z,25.90
2019-05-02T09:50:58.186Z,25.80
2019-05-02T09:53:28.075Z,25.70
2019-05-02T09:55:58.122Z,25.80
2019-05-02T09:58:27.877Z,25.60
2019-05-02T10:01:02.099Z,25.70
2019-05-02T10:03:32.100Z,25.70
2019-05-02T10:06:03.101Z,25.30
2019-05-02T10:08:38.258Z,25.40
2019-05-02T10:11:05.386Z,25.60
2019-05-02T10:13:35.914Z,25.70
2019-05-02T10:16:05.645Z,25.70
2019-05-02T10:18:35.244Z,25.80
2019-05-02T10:21:07.845Z,25.80
2019-05-02T10:23:36.790Z,25.70
2019-05-02T10:26:06.534Z,25.80
2019-05-02T10:28:36.141Z,26.10
2019-05-02T10:31:06.173Z,26.30
2019-05-02T10:33:37.633Z,26.40
2019-05-02T10:36:11.968Z,26.40
2019-05-02T10:38:38.405Z,26.40
2019-05-02T10:41:09.089Z,26.30
2019-05-02T10:43:38.881Z,26.50
2019-05-02T10:46:12.432Z,26.40
2019-05-02T10:48:43.143Z,26.00
2019-05-02T10:51:26.436Z,25.90
2019-05-02T10:53:56.751Z,25.60
2019-05-02T10:56:26.373Z,25.50
2019-05-02T10:58:55.910Z,25.90
2019-05-02T11:01:27.349Z,25.70
2019-05-02T11:03:58.621Z,25.70
2019-05-02T11:06:28.288Z,25.60
2019-05-02T11:08:57.873Z,25.30
2019-05-02T11:11:27.502Z,25.70
2019-05-02T11:14:05.829Z,25.60
2019-05-02T11:16:56.896Z,25.70
2019-05-02T11:19:44.457Z,26.30
2019-05-02T11:22:14.267Z,26.80
2019-05-02T11:24:43.900Z,26.50
2019-05-02T11:27:13.719Z,26.80
2019-05-02T11:29:43.508Z,26.80
2019-05-02T11:32:13.142Z,26.90
2019-05-02T11:34:42.661Z,26.80
2019-05-02T11:37:12.327Z,26.80
2019-05-02T11:39:46.318Z,26.80
2019-05-02T11:42:13.273Z,26.80
2019-05-02T11:44:42.821Z,26.60
2019-05-02T11:47:12.705Z,25.90
2019-05-02T11:49:46.708Z,25.80
2019-05-02T11:52:13.767Z,25.70
2019-05-02T11:54:46.843Z,25.90
2019-05-02T11:57:14.645Z,26.30
2019-05-02T11:59:45.272Z,26.90
2019-05-02T12:02:18.772Z,27.40
2019-05-02T12:04:54.277Z,27.10
2019-05-02T12:07:19.212Z,26.70
2019-05-02T12:09:52.073Z,26.90
2019-05-02T12:12:20.319Z,27.10
2019-05-02T12:14:49.941Z,26.90
2019-05-02T12:17:21.679Z,26.20
2019-05-02T12:19:52.321Z,26.10
2019-05-02T12:22:23.129Z,25.50
2019-05-02T12:24:52.685Z,25.90
2019-05-02T12:27:22.310Z,26.30
2019-05-02T12:29:58.018Z,26.60
2019-05-02T12:32:23.205Z,27.00
2019-05-02T12:34:53.055Z,26.90
2019-05-02T12:37:22.606Z,26.80
2019-05-02T12:39:52.149Z,27.10
2019-05-02T12:42:23.967Z,27.40
2019-05-02T12:44:54.043Z,27.00
2019-05-02T12:47:23.613Z,26.80
2019-05-02T12:49:53.254Z,27.10
2019-05-02T12:52:22.825Z,27.50
2019-05-02T12:54:53.449Z,27.90
2019-05-02T12:57:23.113Z,27.90
2019-05-02T12:59:52.740Z,27.90
2019-05-02T13:02:38.932Z,27.80
2019-05-02T13:05:08.671Z,26.80
2019-05-02T13:07:42.823Z,26.50
2019-05-02T13:10:11.860Z,26.30
2019-05-02T13:12:43.144Z,26.00
2019-05-02T13:15:13.114Z,26.00
2019-05-02T13:17:48.517Z,26.80
2019-05-02T13:20:16.118Z,26.90
2019-05-02T13:23:03.573Z,26.60
2019-05-02T13:25:36.875Z,27.70
2019-05-02T13:28:04.399Z,28.30
2019-05-02T13:30:42.677Z,28.80
2019-05-02T13:33:08.941Z,28.80
2019-05-02T13:35:42.095Z,28.60
2019-05-02T13:38:12.978Z,28.40
2019-05-02T13:40:43.466Z,27.90
2019-05-02T13:43:13.110Z,27.60
2019-05-02T13:45:44.791Z,27.10
2019-05-02T13:48:14.412Z,26.80
2019-05-02T13:50:44.114Z,26.50
2019-05-02T13:53:14.064Z,26.00
2019-05-02T13:55:52.367Z,26.20
2019-05-02T13:58:28.889Z,26.00
2019-05-02T14:00:53.573Z,26.30
2019-05-02T14:03:23.713Z,26.40
2019-05-02T14:05:53.914Z,26.50
2019-05-02T14:08:27.543Z,26.70
2019-05-02T14:11:01.923Z,26.60
2019-05-02T14:13:31.778Z,26.50
2019-05-02T14:16:02.283Z,26.70
2019-05-02T14:18:33.574Z,26.40
2019-05-02T14:21:03.504Z,26.50
2019-05-02T14:23:33.057Z,27.30
2019-05-02T14:26:02.962Z,28.10
2019-05-02T14:28:36.249Z,28.30
2019-05-02T14:31:03.850Z,28.20
2019-05-02T14:33:34.984Z,27.10
2019-05-02T14:36:04.881Z,26.50
2019-05-02T14:38:34.581Z,26.30
2019-05-02T14:41:12.563Z,26.10
2019-05-02T14:43:53.958Z,26.00
2019-05-02T14:46:28.994Z,26.20
2019-05-02T14:48:56.672Z,26.30
2019-05-02T14:51:27.894Z,26.10
2019-05-02T14:54:02.658Z,26.40
2019-05-02T14:56:47.959Z,26.20
2019-05-02T14:59:19.854Z,26.40
2019-05-02T15:01:52.584Z,26.20
2019-05-02T15:04:22.680Z,26.10
2019-05-02T15:06:52.776Z,26.50
2019-05-02T15:09:26.620Z,26.80
2019-05-02T15:11:59.412Z,26.80
2019-05-02T15:14:32.661Z,27.10
2019-05-02T15:17:02.847Z,27.00
2019-05-02T15:19:33.126Z,26.10
2019-05-02T15:22:03.078Z,25.70
2019-05-02T15:24:37.361Z,25.70
2019-05-02T15:27:11.967Z,25.40
2019-05-02T15:29:36.376Z,24.90
2019-05-02T15:32:14.793Z,24.90
2019-05-02T15:34:52.534Z,24.70
2019-05-02T15:37:25.708Z,24.40
2019-05-02T15:42:25.791Z,24.60
2019-05-02T15:44:57.206Z,24.50
2019-05-02T15:47:26.648Z,24.50
2019-05-02T15:49:56.279Z,24.20
2019-05-02T15:52:30.044Z,24.50
2019-05-02T15:55:03.574Z,24.70
2019-05-02T15:57:38.125Z,24.70
2019-05-02T16:00:03.164Z,24.80
2019-05-02T16:02:34.456Z,24.70
2019-05-02T16:05:07.782Z,24.50
2019-05-02T16:07:38.175Z,24.20
2019-05-02T16:10:13.152Z,24.10
2019-05-02T16:12:44.624Z,24.10
2019-05-02T16:15:21.266Z,24.00
2019-05-02T16:17:45.863Z,24.10
2019-05-02T16:20:24.021Z,24.10
2019-05-02T16:22:53.844Z,24.10
2019-05-02T16:25:26.047Z,24.00
2019-05-02T16:27:57.521Z,23.90
2019-05-02T16:30:27.247Z,24.00
2019-05-02T16:32:58.727Z,23.80
2019-05-02T16:35:33.875Z,23.70
2019-05-02T16:38:04.095Z,23.70
2019-05-02T16:40:34.871Z,23.70
2019-05-02T16:43:05.077Z,23.50
2019-05-02T16:45:34.673Z,23.50
2019-05-02T16:48:04.969Z,23.50
2019-05-02T16:50:36.720Z,23.30
2019-05-02T16:53:05.847Z,23.10
2019-05-02T16:55:35.453Z,22.90
2019-05-02T16:58:07.230Z,22.70
2019-05-02T17:00:41.314Z,22.50
2019-05-02T17:03:09.008Z,22.50
2019-05-02T17:05:39.496Z,22.40
2019-05-02T17:08:29.931Z,22.40
2019-05-02T17:11:02.009Z,22.40
2019-05-02T17:13:32.920Z,22.50
2019-05-02T17:16:04.877Z,22.60
2019-05-02T17:18:34.610Z,22.80
2019-05-02T17:21:04.824Z,23.00
2019-05-02T17:23:37.604Z,23.20
2019-05-02T17:26:05.759Z,23.00
2019-05-02T17:28:37.964Z,22.70
2019-05-02T17:31:10.848Z,22.70
2019-05-02T17:33:38.956Z,22.50
2019-05-02T17:36:08.526Z,22.20
2019-05-02T17:38:38.721Z,21.90
2019-05-02T17:41:08.256Z,21.70
2019-05-02T17:43:42.150Z,21.50
2019-05-02T17:46:12.582Z,21.20
2019-05-02T17:48:42.888Z,21.00
2019-05-02T17:51:14.328Z,20.80
2019-05-02T17:53:49.583Z,20.60
2019-05-02T17:56:20.570Z,20.40
2019-05-02T17:58:54.101Z,20.30
2019-05-02T18:01:21.763Z,20.10
2019-05-02T18:03:52.055Z,20.00
2019-05-02T18:06:32.481Z,20.00
2019-05-02T18:08:55.469Z,19.90
2019-05-02T18:11:29.579Z,19.80
2019-05-02T18:13:57.193Z,19.70
2019-05-02T18:16:29.447Z,19.70
2019-05-02T18:19:01.755Z,19.60
2019-05-02T18:21:32.424Z,19.50
2019-05-02T18:24:05.939Z,19.40
2019-05-02T18:26:33.455Z,19.30
2019-05-02T18:29:06.991Z,19.30
2019-05-02T18:31:40.109Z,19.20
2019-05-02T18:34:14.369Z,19.10
2019-05-02T18:36:41.702Z,19.10
2019-05-02T18:39:13.017Z,19.00
2019-05-02T18:41:46.378Z,19.00
2019-05-02T18:44:17.037Z,18.90
2019-05-02T18:49:53.809Z,18.70
2019-05-02T18:52:35.127Z,18.60
2019-05-02T18:54:54.829Z,18.60
2019-05-02T18:57:26.074Z,18.50
2019-05-02T18:59:56.525Z,18.50
2019-05-02T19:02:34.077Z,18.40
2019-05-02T19:04:58.656Z,18.40
2019-05-02T19:07:33.175Z,18.40
2019-05-02T19:10:04.272Z,18.30
2019-05-02T19:12:32.596Z,18.30
2019-05-02T19:15:03.225Z,18.30
2019-05-02T19:17:38.367Z,18.20
2019-05-02T19:20:29.665Z,18.20
2019-05-02T19:22:59.442Z,18.20
2019-05-02T19:25:28.992Z,18.10
2019-05-02T19:28:03.242Z,18.10
2019-05-02T19:30:42.265Z,18.10
2019-05-02T19:33:12.217Z,18.10
2019-05-02T19:35:43.284Z,18.10
2019-05-02T19:38:17.098Z,18.00
2019-05-02T19:40:44.368Z,17.90
2019-05-02T19:43:14.785Z,18.00
2019-05-02T19:45:45.718Z,17.90
2019-05-02T19:48:15.972Z,17.90
2019-05-02T19:50:46.088Z,17.90
2019-05-02T19:53:18.335Z,17.90
2019-05-02T19:55:47.224Z,17.90
2019-05-02T19:58:16.959Z,17.90
2019-05-02T20:00:46.755Z,17.90
2019-05-02T20:03:21.747Z,17.80
2019-05-02T20:05:51.760Z,17.80
2019-05-02T20:08:24.346Z,17.80
2019-05-02T20:10:56.738Z,17.80
2019-05-02T20:13:28.089Z,17.70
2019-05-02T20:16:04.486Z,17.60
2019-05-02T20:18:36.790Z,17.60
2019-05-02T20:21:23.393Z,17.50
2019-05-02T20:23:45.173Z,17.50
2019-05-02T20:26:17.163Z,17.50
2019-05-02T20:28:46.763Z,17.50
2019-05-02T20:31:16.406Z,17.40
2019-05-02T20:33:45.853Z,17.40
2019-05-02T20:36:15.587Z,17.40
2019-05-02T20:38:45.142Z,17.30
2019-05-02T20:41:14.836Z,17.30
2019-05-02T20:43:45.038Z,17.30
2019-05-02T20:46:14.733Z,17.20
2019-05-02T20:48:44.343Z,17.20
2019-05-02T20:51:13.903Z,17.20
2019-05-02T20:53:43.534Z,17.10
2019-05-02T20:56:14.510Z,17.10
2019-05-02T20:58:44.313Z,17.00
2019-05-02T21:01:13.944Z,16.90
2019-05-02T21:03:43.633Z,16.90
2019-05-02T21:06:20.712Z,16.90
2019-05-02T21:09:07.052Z,16.90
2019-05-02T21:11:37.779Z,16.90
2019-05-02T21:14:07.316Z,16.90
2019-05-02T21:16:36.883Z,16.90
2019-05-02T21:19:07.457Z,16.90
2019-05-02T21:21:40.064Z,16.80
2019-05-02T21:24:09.162Z,16.70
2019-05-02T21:26:42.001Z,16.70
2019-05-02T21:29:12.158Z,16.70
2019-05-02T21:31:42.532Z,16.70
2019-05-02T21:34:13.436Z,16.60
2019-05-02T21:36:43.143Z,16.60
2019-05-02T21:39:13.060Z,16.60
2019-05-02T21:41:42.816Z,16.60
2019-05-02T21:44:13.185Z,16.60
2019-05-02T21:46:43.006Z,16.60
2019-05-02T21:49:14.199Z,16.50
2019-05-02T21:51:48.310Z,16.40
2019-05-02T21:54:23.231Z,16.30
2019-05-02T21:56:55.428Z,16.30
2019-05-02T21:59:25.057Z,16.20
2019-05-02T22:01:56.357Z,16.20
2019-05-02T22:04:26.034Z,16.30
2019-05-02T22:06:55.847Z,16.20
2019-05-02T22:09:25.457Z,16.30
2019-05-02T22:11:54.946Z,16.30
2019-05-02T22:14:24.726Z,16.20
2019-05-02T22:16:54.310Z,16.20
2019-05-02T22:19:24.021Z,16.20
2019-05-02T22:21:53.544Z,16.20
2019-05-02T22:24:23.252Z,16.20
2019-05-02T22:26:53.021Z,16.10
2019-05-02T22:29:22.584Z,16.00
2019-05-02T22:31:54.475Z,15.80
2019-05-02T22:34:23.343Z,15.50
2019-05-02T22:36:54.318Z,15.30
2019-05-02T22:39:35.495Z,15.10
2019-05-02T22:42:05.411Z,15.10
2019-05-02T22:44:35.176Z,15.00
2019-05-02T22:47:04.980Z,15.00
2019-05-02T22:49:34.641Z,14.80
2019-05-02T22:52:04.354Z,14.70
2019-05-02T22:54:34.066Z,14.70
2019-05-02T22:57:03.874Z,14.60
2019-05-02T22:59:33.565Z,14.50
2019-05-02T23:02:03.272Z,14.50
2019-05-02T23:04:32.932Z,14.60
2019-05-02T23:07:02.577Z,14.60
2019-05-02T23:09:32.126Z,14.70
2019-05-02T23:12:02.839Z,14.70
2019-05-02T23:14:33.692Z,14.70
2019-05-02T23:17:03.325Z,14.70
2019-05-02T23:19:32.912Z,14.70
2019-05-02T23:22:02.519Z,14.60
2019-05-02T23:24:38.753Z,14.60
2019-05-02T23:27:23.623Z,14.60
2019-05-02T23:29:53.251Z,14.70
2019-05-02T23:32:23.895Z,14.70
2019-05-02T23:34:53.545Z,14.70
2019-05-02T23:37:23.210Z,14.70
2019-05-02T23:39:52.844Z,14.60
2019-05-02T23:42:22.428Z,14.50
2019-05-02T23:44:52.029Z,14.50
2019-05-02T23:47:22.433Z,14.50
2019-05-02T23:49:53.237Z,14.50
2019-05-02T23:52:22.815Z,14.50
2019-05-02T23:54:53.019Z,14.50
2019-05-02T23:57:22.926Z,14.50
2019-05-02T23:59:52.675Z,14.60
